sensor_id;sensor_type;location;lat;lon;timestamp;P1;durP1;ratioP1;P2;durP2;ratioP2
63203;SDS011;49297;43.210;27.914;2023-06-10T00:00:48;19.55;;;17.95;;
63203;SDS011;49297;43.210;27.914;2023-06-10T00:03:18;28.17;;;25.55;;
63203;SDS011;49297;43.210;27.914;2023-06-10T00:05:45;26.23;;;23.33;;
63203;SDS011;49297;43.210;27.914;2023-06-10T00:08:11;18.83;;;17.10;;
63203;SDS011;49297;43.210;27.914;2023-06-10T00:10:38;15.68;;;14.02;;
63203;SDS011;49297;43.210;27.914;2023-06-10T00:13:05;19.60;;;13.80;;
63203;SDS011;49297;43.210;27.914;2023-06-10T00:15:34;20.52;;;14.48;;
63203;SDS011;49297;43.210;27.914;2023-06-10T00:18:02;25.13;;;17.57;;
63203;SDS011;49297;43.210;27.914;2023-06-10T00:20:30;23.13;;;15.73;;
63203;SDS011;49297;43.210;27.914;2023-06-10T00:22:57;24.17;;;17.75;;
63203;SDS011;49297;43.210;27.914;2023-06-10T00:25:24;21.23;;;18.88;;
63203;SDS011;49297;43.210;27.914;2023-06-10T00:27:51;21.50;;;19.40;;
63203;SDS011;49297;43.210;27.914;2023-06-10T00:30:17;22.52;;;19.52;;
63203;SDS011;49297;43.210;27.914;2023-06-10T00:32:43;21.20;;;19.30;;
63203;SDS011;49297;43.210;27.914;2023-06-10T00:35:11;25.33;;;22.73;;
63203;SDS011;49297;43.210;27.914;2023-06-10T00:37:37;27.95;;;25.35;;
63203;SDS011;49297;43.210;27.914;2023-06-10T00:40:04;32.70;;;26.58;;
63203;SDS011;49297;43.210;27.914;2023-06-10T00:42:30;28.45;;;25.85;;
63203;SDS011;49297;43.210;27.914;2023-06-10T00:44:56;30.17;;;27.08;;
63203;SDS011;49297;43.210;27.914;2023-06-10T00:47:23;28.65;;;25.83;;
63203;SDS011;49297;43.210;27.914;2023-06-10T00:49:54;26.40;;;23.65;;
63203;SDS011;49297;43.210;27.914;2023-06-10T00:52:20;24.67;;;22.27;;
63203;SDS011;49297;43.210;27.914;2023-06-10T00:54:49;23.60;;;20.48;;
63203;SDS011;49297;43.210;27.914;2023-06-10T00:57:15;24.88;;;20.27;;
63203;SDS011;49297;43.210;27.914;2023-06-10T00:59:41;22.02;;;17.92;;
63203;SDS011;49297;43.210;27.914;2023-06-10T01:02:12;21.50;;;17.42;;
63203;SDS011;49297;43.210;27.914;2023-06-10T01:04:38;19.07;;;17.27;;
63203;SDS011;49297;43.210;27.914;2023-06-10T01:07:24;21.65;;;19.52;;
63203;SDS011;49297;43.210;27.914;2023-06-10T01:12:42;18.40;;;16.50;;
63203;SDS011;49297;43.210;27.914;2023-06-10T01:15:16;22.83;;;16.75;;
63203;SDS011;49297;43.210;27.914;2023-06-10T01:20:36;27.15;;;17.88;;
63203;SDS011;49297;43.210;27.914;2023-06-10T01:23:06;30.08;;;20.52;;
63203;SDS011;49297;43.210;27.914;2023-06-10T01:25:33;28.38;;;23.33;;
63203;SDS011;49297;43.210;27.914;2023-06-10T01:33:39;29.57;;;25.43;;
63203;SDS011;49297;43.210;27.914;2023-06-10T01:36:08;32.13;;;27.70;;
63203;SDS011;49297;43.210;27.914;2023-06-10T01:38:42;32.38;;;28.90;;
63203;SDS011;49297;43.210;27.914;2023-06-10T01:41:11;31.15;;;26.60;;
63203;SDS011;49297;43.210;27.914;2023-06-10T01:43:38;35.80;;;29.50;;
63203;SDS011;49297;43.210;27.914;2023-06-10T01:46:05;34.87;;;30.67;;
63203;SDS011;49297;43.210;27.914;2023-06-10T01:48:32;42.87;;;31.97;;
63203;SDS011;49297;43.210;27.914;2023-06-10T01:50:58;39.03;;;31.02;;
63203;SDS011;49297;43.210;27.914;2023-06-10T01:53:24;31.83;;;28.75;;
63203;SDS011;49297;43.210;27.914;2023-06-10T01:55:51;27.70;;;25.00;;
63203;SDS011;49297;43.210;27.914;2023-06-10T01:58:18;25.85;;;23.02;;
63203;SDS011;49297;43.210;27.914;2023-06-10T02:00:44;30.60;;;22.65;;
63203;SDS011;49297;43.210;27.914;2023-06-10T02:03:10;25.08;;;21.40;;
63203;SDS011;49297;43.210;27.914;2023-06-10T02:05:37;21.40;;;18.60;;
63203;SDS011;49297;43.210;27.914;2023-06-10T02:08:03;23.77;;;18.50;;
63203;SDS011;49297;43.210;27.914;2023-06-10T02:10:30;28.95;;;19.77;;
63203;SDS011;49297;43.210;27.914;2023-06-10T02:13:03;27.58;;;18.45;;
63203;SDS011;49297;43.210;27.914;2023-06-10T02:15:30;21.83;;;17.88;;
63203;SDS011;49297;43.210;27.914;2023-06-10T02:17:55;23.63;;;18.75;;
63203;SDS011;49297;43.210;27.914;2023-06-10T02:20:22;27.13;;;18.88;;
63203;SDS011;49297;43.210;27.914;2023-06-10T02:22:49;21.15;;;19.00;;
63203;SDS011;49297;43.210;27.914;2023-06-10T02:25:15;24.55;;;18.75;;
63203;SDS011;49297;43.210;27.914;2023-06-10T02:27:43;21.10;;;17.17;;
63203;SDS011;49297;43.210;27.914;2023-06-10T02:30:09;21.60;;;19.40;;
63203;SDS011;49297;43.210;27.914;2023-06-10T02:32:35;26.00;;;20.02;;
63203;SDS011;49297;43.210;27.914;2023-06-10T02:35:01;24.90;;;22.52;;
63203;SDS011;49297;43.210;27.914;2023-06-10T02:37:30;26.42;;;23.80;;
63203;SDS011;49297;43.210;27.914;2023-06-10T02:39:55;26.55;;;23.42;;
63203;SDS011;49297;43.210;27.914;2023-06-10T02:42:21;28.03;;;24.43;;
63203;SDS011;49297;43.210;27.914;2023-06-10T02:44:47;31.08;;;25.92;;
63203;SDS011;49297;43.210;27.914;2023-06-10T02:47:14;29.27;;;25.85;;
63203;SDS011;49297;43.210;27.914;2023-06-10T02:49:41;31.58;;;28.35;;
63203;SDS011;49297;43.210;27.914;2023-06-10T02:52:07;41.78;;;38.08;;
63203;SDS011;49297;43.210;27.914;2023-06-10T02:54:34;38.20;;;34.00;;
63203;SDS011;49297;43.210;27.914;2023-06-10T02:57:01;37.40;;;33.90;;
63203;SDS011;49297;43.210;27.914;2023-06-10T02:59:27;48.85;;;43.85;;
63203;SDS011;49297;43.210;27.914;2023-06-10T03:01:55;46.07;;;40.00;;
63203;SDS011;49297;43.210;27.914;2023-06-10T03:04:21;28.03;;;25.30;;
63203;SDS011;49297;43.210;27.914;2023-06-10T03:06:49;26.40;;;23.40;;
63203;SDS011;49297;43.210;27.914;2023-06-10T03:09:17;25.67;;;21.80;;
63203;SDS011;49297;43.210;27.914;2023-06-10T03:11:43;23.30;;;20.93;;
63203;SDS011;49297;43.210;27.914;2023-06-10T03:14:09;24.87;;;16.90;;
63203;SDS011;49297;43.210;27.914;2023-06-10T03:16:34;23.23;;;16.67;;
63203;SDS011;49297;43.210;27.914;2023-06-10T03:19:01;21.98;;;16.33;;
63203;SDS011;49297;43.210;27.914;2023-06-10T03:21:27;18.02;;;15.43;;
63203;SDS011;49297;43.210;27.914;2023-06-10T03:23:55;16.73;;;15.07;;
63203;SDS011;49297;43.210;27.914;2023-06-10T03:26:21;16.33;;;14.60;;
63203;SDS011;49297;43.210;27.914;2023-06-10T03:28:47;18.77;;;16.93;;
63203;SDS011;49297;43.210;27.914;2023-06-10T03:31:14;21.17;;;17.50;;
63203;SDS011;49297;43.210;27.914;2023-06-10T03:33:42;23.02;;;21.05;;
63203;SDS011;49297;43.210;27.914;2023-06-10T03:36:09;23.35;;;19.50;;
63203;SDS011;49297;43.210;27.914;2023-06-10T03:38:36;25.95;;;20.00;;
63203;SDS011;49297;43.210;27.914;2023-06-10T03:41:04;18.15;;;16.35;;
63203;SDS011;49297;43.210;27.914;2023-06-10T03:43:34;18.23;;;14.73;;
63203;SDS011;49297;43.210;27.914;2023-06-10T03:46:00;17.55;;;15.00;;
63203;SDS011;49297;43.210;27.914;2023-06-10T03:48:27;14.55;;;13.20;;
63203;SDS011;49297;43.210;27.914;2023-06-10T03:50:59;14.52;;;13.02;;
63203;SDS011;49297;43.210;27.914;2023-06-10T03:53:32;15.93;;;14.63;;
63203;SDS011;49297;43.210;27.914;2023-06-10T03:55:58;18.05;;;16.20;;
63203;SDS011;49297;43.210;27.914;2023-06-10T03:58:30;24.00;;;17.05;;
63203;SDS011;49297;43.210;27.914;2023-06-10T04:00:56;21.47;;;18.30;;
63203;SDS011;49297;43.210;27.914;2023-06-10T04:03:22;21.10;;;18.37;;
63203;SDS011;49297;43.210;27.914;2023-06-10T04:05:48;23.00;;;20.05;;
63203;SDS011;49297;43.210;27.914;2023-06-10T04:10:48;25.63;;;23.20;;
63203;SDS011;49297;43.210;27.914;2023-06-10T04:13:14;26.20;;;23.45;;
63203;SDS011;49297;43.210;27.914;2023-06-10T04:15:42;25.10;;;22.70;;
63203;SDS011;49297;43.210;27.914;2023-06-10T04:18:08;25.70;;;22.98;;
63203;SDS011;49297;43.210;27.914;2023-06-10T04:20:35;27.70;;;23.60;;
63203;SDS011;49297;43.210;27.914;2023-06-10T04:23:01;25.38;;;22.63;;
63203;SDS011;49297;43.210;27.914;2023-06-10T04:25:27;24.95;;;22.48;;
63203;SDS011;49297;43.210;27.914;2023-06-10T04:27:55;25.52;;;21.40;;
63203;SDS011;49297;43.210;27.914;2023-06-10T04:30:22;28.10;;;21.30;;
63203;SDS011;49297;43.210;27.914;2023-06-10T04:32:48;31.67;;;28.63;;
63203;SDS011;49297;43.210;27.914;2023-06-10T04:35:14;33.85;;;30.88;;
63203;SDS011;49297;43.210;27.914;2023-06-10T04:37:41;23.30;;;21.10;;
63203;SDS011;49297;43.210;27.914;2023-06-10T04:40:08;24.23;;;21.70;;
63203;SDS011;49297;43.210;27.914;2023-06-10T04:42:37;23.45;;;21.30;;
63203;SDS011;49297;43.210;27.914;2023-06-10T04:45:03;22.10;;;19.95;;
63203;SDS011;49297;43.210;27.914;2023-06-10T04:47:29;23.67;;;20.88;;
63203;SDS011;49297;43.210;27.914;2023-06-10T04:50:00;25.05;;;22.42;;
63203;SDS011;49297;43.210;27.914;2023-06-10T04:52:26;23.80;;;21.40;;
63203;SDS011;49297;43.210;27.914;2023-06-10T04:54:53;23.73;;;21.63;;
63203;SDS011;49297;43.210;27.914;2023-06-10T04:57:20;22.05;;;19.92;;
63203;SDS011;49297;43.210;27.914;2023-06-10T04:59:47;23.17;;;19.70;;
63203;SDS011;49297;43.210;27.914;2023-06-10T05:02:13;21.25;;;19.27;;
63203;SDS011;49297;43.210;27.914;2023-06-10T05:04:39;22.65;;;19.80;;
63203;SDS011;49297;43.210;27.914;2023-06-10T05:07:05;33.10;;;29.55;;
63203;SDS011;49297;43.210;27.914;2023-06-10T05:09:31;35.85;;;32.75;;
63203;SDS011;49297;43.210;27.914;2023-06-10T05:11:59;26.25;;;23.75;;
63203;SDS011;49297;43.210;27.914;2023-06-10T05:14:27;27.85;;;24.90;;
63203;SDS011;49297;43.210;27.914;2023-06-10T05:16:54;22.67;;;20.33;;
63203;SDS011;49297;43.210;27.914;2023-06-10T05:19:20;19.83;;;16.90;;
63203;SDS011;49297;43.210;27.914;2023-06-10T05:21:47;19.20;;;16.60;;
63203;SDS011;49297;43.210;27.914;2023-06-10T05:24:13;17.87;;;15.87;;
63203;SDS011;49297;43.210;27.914;2023-06-10T05:26:39;19.33;;;13.73;;
63203;SDS011;49297;43.210;27.914;2023-06-10T05:29:07;17.30;;;13.85;;
63203;SDS011;49297;43.210;27.914;2023-06-10T05:31:34;18.67;;;14.38;;
63203;SDS011;49297;43.210;27.914;2023-06-10T05:34:01;18.38;;;13.73;;
63203;SDS011;49297;43.210;27.914;2023-06-10T05:36:27;14.18;;;12.05;;
63203;SDS011;49297;43.210;27.914;2023-06-10T05:38:54;17.13;;;13.45;;
63203;SDS011;49297;43.210;27.914;2023-06-10T05:41:20;13.60;;;12.03;;
63203;SDS011;49297;43.210;27.914;2023-06-10T05:43:47;15.15;;;13.57;;
63203;SDS011;49297;43.210;27.914;2023-06-10T05:46:13;13.77;;;12.00;;
63203;SDS011;49297;43.210;27.914;2023-06-10T05:48:39;14.23;;;11.77;;
63203;SDS011;49297;43.210;27.914;2023-06-10T05:51:05;14.27;;;12.43;;
63203;SDS011;49297;43.210;27.914;2023-06-10T05:53:31;13.35;;;11.43;;
63203;SDS011;49297;43.210;27.914;2023-06-10T05:55:57;14.13;;;12.13;;
63203;SDS011;49297;43.210;27.914;2023-06-10T05:58:24;14.80;;;12.43;;
63203;SDS011;49297;43.210;27.914;2023-06-10T06:00:51;15.88;;;12.10;;
63203;SDS011;49297;43.210;27.914;2023-06-10T06:03:19;14.73;;;13.32;;
63203;SDS011;49297;43.210;27.914;2023-06-10T06:05:44;15.80;;;13.85;;
63203;SDS011;49297;43.210;27.914;2023-06-10T06:08:11;17.73;;;15.93;;
63203;SDS011;49297;43.210;27.914;2023-06-10T06:10:39;17.60;;;15.98;;
63203;SDS011;49297;43.210;27.914;2023-06-10T06:13:06;18.95;;;14.95;;
63203;SDS011;49297;43.210;27.914;2023-06-10T06:15:32;23.27;;;14.97;;
63203;SDS011;49297;43.210;27.914;2023-06-10T06:17:59;17.45;;;14.50;;
63203;SDS011;49297;43.210;27.914;2023-06-10T06:20:24;16.20;;;14.68;;
63203;SDS011;49297;43.210;27.914;2023-06-10T06:22:51;17.07;;;13.57;;
63203;SDS011;49297;43.210;27.914;2023-06-10T06:25:17;14.90;;;13.30;;
63203;SDS011;49297;43.210;27.914;2023-06-10T06:27:43;14.68;;;13.27;;
63203;SDS011;49297;43.210;27.914;2023-06-10T06:30:10;15.52;;;13.00;;
63203;SDS011;49297;43.210;27.914;2023-06-10T06:32:37;15.88;;;12.80;;
63203;SDS011;49297;43.210;27.914;2023-06-10T06:35:03;13.10;;;11.50;;
63203;SDS011;49297;43.210;27.914;2023-06-10T06:37:31;18.67;;;11.68;;
63203;SDS011;49297;43.210;27.914;2023-06-10T06:40:02;14.35;;;12.35;;
63203;SDS011;49297;43.210;27.914;2023-06-10T06:42:31;16.10;;;11.05;;
63203;SDS011;49297;43.210;27.914;2023-06-10T06:44:58;12.30;;;10.98;;
63203;SDS011;49297;43.210;27.914;2023-06-10T06:47:24;15.82;;;12.35;;
63203;SDS011;49297;43.210;27.914;2023-06-10T06:49:53;21.25;;;11.95;;
63203;SDS011;49297;43.210;27.914;2023-06-10T06:52:25;15.60;;;12.55;;
63203;SDS011;49297;43.210;27.914;2023-06-10T06:54:52;14.38;;;10.10;;
63203;SDS011;49297;43.210;27.914;2023-06-10T06:57:17;17.80;;;10.27;;
63203;SDS011;49297;43.210;27.914;2023-06-10T06:59:44;14.13;;;10.25;;
63203;SDS011;49297;43.210;27.914;2023-06-10T07:02:10;17.40;;;9.45;;
63203;SDS011;49297;43.210;27.914;2023-06-10T07:04:36;12.27;;;8.02;;
63203;SDS011;49297;43.210;27.914;2023-06-10T07:07:04;16.87;;;10.83;;
63203;SDS011;49297;43.210;27.914;2023-06-10T07:09:30;16.00;;;10.43;;
63203;SDS011;49297;43.210;27.914;2023-06-10T07:11:56;11.80;;;8.82;;
63203;SDS011;49297;43.210;27.914;2023-06-10T07:14:24;9.48;;;8.57;;
63203;SDS011;49297;43.210;27.914;2023-06-10T07:16:50;11.30;;;8.73;;
63203;SDS011;49297;43.210;27.914;2023-06-10T07:19:16;13.57;;;8.68;;
63203;SDS011;49297;43.210;27.914;2023-06-10T07:21:42;14.30;;;7.78;;
63203;SDS011;49297;43.210;27.914;2023-06-10T07:24:08;10.97;;;5.37;;
63203;SDS011;49297;43.210;27.914;2023-06-10T07:26:34;14.60;;;6.40;;
63203;SDS011;49297;43.210;27.914;2023-06-10T07:29:00;12.73;;;5.43;;
63203;SDS011;49297;43.210;27.914;2023-06-10T07:31:26;11.70;;;4.83;;
63203;SDS011;49297;43.210;27.914;2023-06-10T07:33:53;6.72;;;4.32;;
63203;SDS011;49297;43.210;27.914;2023-06-10T07:36:19;4.53;;;3.60;;
63203;SDS011;49297;43.210;27.914;2023-06-10T07:38:45;5.05;;;3.80;;
63203;SDS011;49297;43.210;27.914;2023-06-10T07:41:11;6.50;;;4.80;;
63203;SDS011;49297;43.210;27.914;2023-06-10T07:43:37;6.22;;;4.43;;
63203;SDS011;49297;43.210;27.914;2023-06-10T07:46:03;7.73;;;4.73;;
63203;SDS011;49297;43.210;27.914;2023-06-10T07:48:32;8.95;;;4.13;;
63203;SDS011;49297;43.210;27.914;2023-06-10T07:51:00;5.40;;;3.45;;
63203;SDS011;49297;43.210;27.914;2023-06-10T07:53:26;6.30;;;3.42;;
63203;SDS011;49297;43.210;27.914;2023-06-10T07:55:53;7.13;;;4.15;;
63203;SDS011;49297;43.210;27.914;2023-06-10T07:58:19;4.55;;;3.15;;
63203;SDS011;49297;43.210;27.914;2023-06-10T08:00:46;6.53;;;4.17;;
63203;SDS011;49297;43.210;27.914;2023-06-10T08:03:12;7.40;;;4.30;;
63203;SDS011;49297;43.210;27.914;2023-06-10T08:05:44;5.75;;;4.00;;
63203;SDS011;49297;43.210;27.914;2023-06-10T08:08:10;6.45;;;4.40;;
63203;SDS011;49297;43.210;27.914;2023-06-10T08:10:36;6.00;;;3.25;;
63203;SDS011;49297;43.210;27.914;2023-06-10T08:13:02;5.55;;;3.42;;
63203;SDS011;49297;43.210;27.914;2023-06-10T08:15:28;4.83;;;3.93;;
63203;SDS011;49297;43.210;27.914;2023-06-10T08:20:24;5.85;;;3.40;;
63203;SDS011;49297;43.210;27.914;2023-06-10T08:23:09;3.47;;;3.10;;
63203;SDS011;49297;43.210;27.914;2023-06-10T08:25:41;3.35;;;3.05;;
63203;SDS011;49297;43.210;27.914;2023-06-10T08:28:07;8.43;;;3.33;;
